Observation data for Pampa on 05/24/2020      Previous  Date  Next       Current Mesonet Observations  Soil Data  Daily Summary Page  Observations in Plain Language
KPMS 240500Z 16017G22KT 19/11 A2981 RMK A01 T01920105  RH  059%=      5-min Rain = 0
KPMS 240505Z 16017G23KT 19/11 A2981 RMK A01 T01910106  RH  060%=      5-min Rain = 0
KPMS 240510Z 16017G23KT 19/11 A298 RMK A01 T01900106  RH  060%=      5-min Rain = 0
KPMS 240515Z 15017KT 19/11 A298 RMK A01 T01890107  RH  061%=      5-min Rain = 0
KPMS 240520Z 14018KT 19/11 A298 RMK A01 T01860108  RH  062%=      5-min Rain = 0
KPMS 240525Z 15017G22KT 18/11 A2981 RMK A01 T01840109  RH  064%=      5-min Rain = 0
KPMS 240530Z 15016G22KT 18/11 A2981 RMK A01 T01830110  RH  064%=      5-min Rain = 0
KPMS 240535Z 14016KT 18/11 A2981 RMK A01 T01820110  RH  065%=      5-min Rain = 0
KPMS 240540Z 14015KT 18/11 A298 RMK A01 T01810110  RH  065%=      5-min Rain = 0
KPMS 240545Z 15016KT 18/11 A2981 RMK A01 T01810110  RH  065%=      5-min Rain = 0
KPMS 240550Z 15016KT 18/11 A2981 RMK A01 T01810111  RH  066%=      5-min Rain = 0
KPMS 240555Z 14017G22KT 18/11 A2981 RMK A01 T01800111  RH  066%=      5-min Rain = 0
KPMS 240600Z 15015KT 18/11 A2981 RMK A01 T01790112  RH  067%=      5-min Rain = 0
KPMS 240605Z 15015KT 18/11 A2982 RMK A01 T01770112  RH  068%=      5-min Rain = 0
KPMS 240610Z 14013G18KT 18/11 A2982 RMK A01 T01750113  RH  069%=      5-min Rain = 0
KPMS 240615Z 14014KT 17/11 A2982 RMK A01 T01740113  RH  070%=      5-min Rain = 0
KPMS 240620Z 15014KT 17/11 A2981 RMK A01 T01730113  RH  071%=      5-min Rain = 0
KPMS 240625Z 15014KT 17/11 A2981 RMK A01 T01720113  RH  071%=      5-min Rain = 0
KPMS 240630Z 15013KT 17/11 A2981 RMK A01 T01710114  RH  071%=      5-min Rain = 0
KPMS 240635Z 15013KT 17/11 A2981 RMK A01 T01710114  RH  072%=      5-min Rain = 0
KPMS 240640Z 14012KT 17/11 A2981 RMK A01 T01700114  RH  072%=      5-min Rain = 0
KPMS 240645Z 15011KT 17/12 A2982 RMK A01 T01680115  RH  073%=      5-min Rain = 0
KPMS 240650Z 13011KT 17/12 A2982 RMK A01 T01660115  RH  074%=      5-min Rain = 0
KPMS 240655Z 15011G16KT 17/12 A2982 RMK A01 T01660116  RH  075%=      5-min Rain = 0
KPMS 240700Z 14010KT 16/12 A2982 RMK A01 T01640116  RH  076%=      5-min Rain = 0
KPMS 240705Z 13012KT 16/12 A2982 RMK A01 T01640116  RH  076%=      5-min Rain = 0
KPMS 240710Z 14011KT 16/12 A2982 RMK A01 T01640116  RH  076%=      5-min Rain = 0
KPMS 240715Z 14010KT 16/12 A2982 RMK A01 T01630117  RH  077%=      5-min Rain = 0
KPMS 240720Z 14010KT 16/12 A2982 RMK A01 T01620117  RH  078%=      5-min Rain = 0
KPMS 240725Z 13011KT 16/12 A2982 RMK A01 T01610117  RH  078%=      5-min Rain = 0
KPMS 240730Z 14012KT 16/12 A2982 RMK A01 T01610117  RH  078%=      5-min Rain = 0
KPMS 240735Z 14012KT 16/12 A2982 RMK A01 T01610118  RH  079%=      5-min Rain = 0
KPMS 240740Z 15012KT 16/12 A2982 RMK A01 T01600118  RH  079%=      5-min Rain = 0
KPMS 240745Z 15012KT 16/12 A2982 RMK A01 T01590118  RH  080%=      5-min Rain = 0
KPMS 240750Z 15012KT 16/12 A2982 RMK A01 T01580118  RH  080%=      5-min Rain = 0
KPMS 240755Z 15011KT 16/12 A2983 RMK A01 T01580118  RH  080%=      5-min Rain = 0
KPMS 240800Z 16011KT 16/12 A2983 RMK A01 T01570118  RH  081%=      5-min Rain = 0
KPMS 240805Z 16011KT 16/12 A2982 RMK A01 T01570118  RH  081%=      5-min Rain = 0
KPMS 240810Z 16012KT 16/12 A2982 RMK A01 T01570118  RH  080%=      5-min Rain = 0
KPMS 240815Z 15011KT 16/12 A2983 RMK A01 T01570118  RH  080%=      5-min Rain = 0
KPMS 240820Z 16011G16KT 16/12 A2983 RMK A01 T01570117  RH  080%=      5-min Rain = 0
KPMS 240825Z 16012KT 16/12 A2982 RMK A01 T01580116  RH  079%=      5-min Rain = 0
KPMS 240830Z 16012KT 16/12 A2983 RMK A01 T01590116  RH  079%=      5-min Rain = 0
KPMS 240835Z 16012KT 16/12 A2983 RMK A01 T01570116  RH  079%=      5-min Rain = 0
KPMS 240840Z 17013KT 16/12 A2982 RMK A01 T01590115  RH  078%=      5-min Rain = 0
KPMS 240845Z 17015KT 16/11 A2982 RMK A01 T01610114  RH  077%=      5-min Rain = 0
KPMS 240850Z 17015G21KT 16/11 A2982 RMK A01 T01610113  RH  076%=      5-min Rain = 0
KPMS 240855Z 17015KT 16/11 A2983 RMK A01 T01620113  RH  075%=      5-min Rain = 0
KPMS 240900Z 16014KT 16/11 A2983 RMK A01 T01630112  RH  075%=      5-min Rain = 0
KPMS 240905Z 16015G20KT 16/11 A2983 RMK A01 T01630112  RH  074%=      5-min Rain = 0
KPMS 240910Z 17015KT 16/11 A2983 RMK A01 T01630111  RH  074%=      5-min Rain = 0
KPMS 240915Z 17014KT 16/11 A2983 RMK A01 T01620111  RH  074%=      5-min Rain = 0
KPMS 240920Z 16014G19KT 16/11 A2982 RMK A01 T01620111  RH  074%=      5-min Rain = 0
KPMS 240925Z 17016KT 16/11 A2982 RMK A01 T01630111  RH  074%=      5-min Rain = 0
KPMS 240930Z 16015G20KT 16/11 A2982 RMK A01 T01620111  RH  075%=      5-min Rain = 0
KPMS 240935Z 17014KT 16/11 A2982 RMK A01 T01600111  RH  075%=      5-min Rain = 0
KPMS 240940Z 17014KT 16/11 A2982 RMK A01 T01590112  RH  076%=      5-min Rain = 0
KPMS 240945Z 17016G21KT 16/11 A2982 RMK A01 T01600112  RH  076%=      5-min Rain = 0
KPMS 240950Z 17015G20KT 16/11 A2982 RMK A01 T01600112  RH  076%=      5-min Rain = 0
KPMS 240955Z 17016KT 16/11 A2982 RMK A01 T01590112  RH  076%=      5-min Rain = 0
KPMS 241000Z 17015G20KT 16/11 A2982 RMK A01 T01590112  RH  076%=      5-min Rain = 0
KPMS 241005Z 17015KT 16/11 A2982 RMK A01 T01580112  RH  077%=      5-min Rain = 0
KPMS 241010Z 17014G19KT 16/11 A2982 RMK A01 T01570112  RH  077%=      5-min Rain = 0
KPMS 241015Z 17014KT 16/11 A2982 RMK A01 T01570112  RH  077%=      5-min Rain = 0
KPMS 241020Z 17013KT 16/11 A2982 RMK A01 T01560111  RH  077%=      5-min Rain = 0
KPMS 241025Z 17014KT 16/11 A2982 RMK A01 T01550111  RH  078%=      5-min Rain = 0
KPMS 241030Z 17014KT 16/11 A2982 RMK A01 T01560111  RH  078%=      5-min Rain = 0
KPMS 241035Z 17012KT 16/11 A2982 RMK A01 T01550111  RH  078%=      5-min Rain = 0
KPMS 241040Z 17013G20KT 16/11 A2982 RMK A01 T01550111  RH  078%=      5-min Rain = 0
KPMS 241045Z 17013KT 16/11 A2981 RMK A01 T01550111  RH  078%=      5-min Rain = 0
KPMS 241050Z 17013KT 16/11 A2982 RMK A01 T01550111  RH  077%=      5-min Rain = 0
KPMS 241055Z 17012KT 16/11 A2982 RMK A01 T01550111  RH  078%=      5-min Rain = 0
KPMS 241100Z 17011G16KT 16/11 A2982 RMK A01 T01550111  RH  078%=      5-min Rain = 0
KPMS 241105Z 17011KT 15/11 A2982 RMK A01 T01540111  RH  078%=      5-min Rain = 0
KPMS 241110Z 17011KT 15/11 A2981 RMK A01 T01520111  RH  079%=      5-min Rain = 0
KPMS 241115Z 16012KT 15/11 A2981 RMK A01 T01490111  RH  081%=      5-min Rain = 0
KPMS 241120Z 17012KT 15/11 A2981 RMK A01 T01490111  RH  081%=      5-min Rain = 0
KPMS 241125Z 17012KT 15/11 A298 RMK A01 T01500110  RH  080%=      5-min Rain = 0
KPMS 241130Z 16012G17KT 15/11 A298 RMK A01 T01490110  RH  080%=      5-min Rain = 0
KPMS 241135Z 16012KT 15/11 A298 RMK A01 T01460110  RH  082%=      5-min Rain = 0
KPMS 241140Z 16013KT 15/11 A2981 RMK A01 T01450110  RH  083%=      5-min Rain = 0
KPMS 241145Z 17014KT 15/11 A298 RMK A01 T01460110  RH  082%=      5-min Rain = 0
KPMS 241150Z 17013KT 15/11 A2981 RMK A01 T01490110  RH  080%=      5-min Rain = 0
KPMS 241155Z 17012KT 15/11 A2981 RMK A01 T01530109  RH  078%=      5-min Rain = 0
KPMS 241200Z 16011KT 15/11 A2981 RMK A01 T01530109  RH  078%=      5-min Rain = 0
KPMS 241205Z 16011KT 15/11 A2982 RMK A01 T01500110  RH  080%=      5-min Rain = 0
KPMS 241210Z 16012KT 15/11 A2982 RMK A01 T01480110  RH  081%=      5-min Rain = 0
KPMS 241215Z 17013KT 15/11 A2982 RMK A01 T01490110  RH  080%=      5-min Rain = 0
KPMS 241220Z 16013KT 15/11 A2982 RMK A01 T01520110  RH  079%=      5-min Rain = 0
KPMS 241225Z 16014KT 16/11 A2982 RMK A01 T01560110  RH  077%=      5-min Rain = 0
KPMS 241230Z 16012KT 16/11 A2982 RMK A01 T01600111  RH  075%=      5-min Rain = 0
KPMS 241235Z 16013KT 16/11 A2982 RMK A01 T01610111  RH  075%=      5-min Rain = 0
KPMS 241240Z 16013KT 16/11 A2982 RMK A01 T01600111  RH  075%=      5-min Rain = 0
KPMS 241245Z 16012KT 16/11 A2982 RMK A01 T01630112  RH  074%=      5-min Rain = 0
KPMS 241250Z 16012G19KT 17/11 A2982 RMK A01 T01650113  RH  074%=      5-min Rain = 0
KPMS 241255Z 16013KT 17/11 A2982 RMK A01 T01670112  RH  073%=      5-min Rain = 0
KPMS 241300Z 17013KT 17/11 A2982 RMK A01 T01670111  RH  072%=      5-min Rain = 0
KPMS 241305Z 17014KT 17/11 A2982 RMK A01 T01730112  RH  069%=      5-min Rain = 0
KPMS 241310Z 17015KT 18/11 A2981 RMK A01 T01760112  RH  068%=      5-min Rain = 0
KPMS 241315Z 17014G20KT 18/11 A2981 RMK A01 T01800113  RH  067%=      5-min Rain = 0
KPMS 241320Z 17017G22KT 18/11 A2981 RMK A01 T01840113  RH  066%=      5-min Rain = 0
KPMS 241325Z 17017G22KT 19/11 A2981 RMK A01 T01880113  RH  064%=      5-min Rain = 0
KPMS 241330Z 17017G22KT 19/11 A2981 RMK A01 T01910114  RH  063%=      5-min Rain = 0
KPMS 241335Z 17017G23KT 19/12 A2981 RMK A01 T01930115  RH  063%=      5-min Rain = 0
KPMS 241340Z 17017G22KT 20/12 A2981 RMK A01 T01980115  RH  061%=      5-min Rain = 0
KPMS 241345Z 17017KT 20/11 A2981 RMK A01 T02030114  RH  059%=      5-min Rain = 0
KPMS 241350Z 16017G23KT 21/12 A2981 RMK A01 T02060115  RH  058%=      5-min Rain = 0
KPMS 241355Z 16017G25KT 21/12 A2981 RMK A01 T02100115  RH  056%=      5-min Rain = 0
KPMS 241400Z 16018G24KT 21/12 A2981 RMK A01 T02130115  RH  055%=      5-min Rain = 0
KPMS 241405Z 16017G22KT 22/12 A2981 RMK A01 T02160115  RH  055%=      5-min Rain = 0
KPMS 241410Z 17019G28KT 22/11 A2981 RMK A01 T02150114  RH  054%=      5-min Rain = 0
KPMS 241415Z 17017G25KT 22/12 A2982 RMK A01 T02170116  RH  054%=      5-min Rain = 0
KPMS 241420Z 17017G24KT 22/12 A2982 RMK A01 T02200116  RH  053%=      5-min Rain = 0
KPMS 241425Z 17015G20KT 22/12 A2982 RMK A01 T02200115  RH  053%=      5-min Rain = 0
KPMS 241430Z 17016G21KT 22/12 A2983 RMK A01 T02200115  RH  053%=      5-min Rain = 0
KPMS 241435Z 18013G20KT 22/12 A2983 RMK A01 T02210118  RH  054%=      5-min Rain = 0
KPMS 241440Z 19015G20KT 22/12 A2983 RMK A01 T02230118  RH  053%=      5-min Rain = 0
KPMS 241445Z 18015G21KT 22/12 A2983 RMK A01 T02230118  RH  053%=      5-min Rain = 0
KPMS 241450Z 19015KT 22/12 A2983 RMK A01 T02220119  RH  054%=      5-min Rain = 0
KPMS 241455Z 19016G22KT 22/12 A2984 RMK A01 T02230120  RH  054%=      5-min Rain = 0
KPMS 241500Z 20016G24KT 23/12 A2984 RMK A01 T02260123  RH  054%=      5-min Rain = 0
KPMS 241505Z 19015G21KT 23/12 A2984 RMK A01 T02270123  RH  054%=      5-min Rain = 0
KPMS 241510Z 19015G22KT 23/12 A2983 RMK A01 T02280124  RH  054%=      5-min Rain = 0
KPMS 241515Z 19017KT 23/12 A2983 RMK A01 T02270123  RH  054%=      5-min Rain = 0
KPMS 241520Z 20014G22KT 23/13 A2983 RMK A01 T02300125  RH  054%=      5-min Rain = 0
KPMS 241525Z 19013G18KT 23/13 A2984 RMK A01 T02320126  RH  053%=      5-min Rain = 0
KPMS 241530Z 19013G19KT 23/13 A2984 RMK A01 T02310126  RH  054%=      5-min Rain = 0
KPMS 241535Z 19014G20KT 23/13 A2984 RMK A01 T02310126  RH  054%=      5-min Rain = 0
KPMS 241540Z 18015G20KT 23/13 A2983 RMK A01 T02340127  RH  053%=      5-min Rain = 0
KPMS 241545Z 18014G20KT 23/13 A2983 RMK A01 T02330127  RH  053%=      5-min Rain = 0
KPMS 241550Z 18015G20KT 23/13 A2983 RMK A01 T02340128  RH  053%=      5-min Rain = 0
KPMS 241555Z 18013G18KT 24/13 A2983 RMK A01 T02420131  RH  052%=      5-min Rain = 0
KPMS 241600Z 18014G21KT 24/13 A2983 RMK A01 T02410130  RH  052%=      5-min Rain = 0
KPMS 241605Z 18014G21KT 24/13 A2983 RMK A01 T02410129  RH  051%=      5-min Rain = 0
KPMS 241610Z 19014G20KT 24/13 A2983 RMK A01 T02420129  RH  051%=      5-min Rain = 0
KPMS 241615Z 19015G20KT 24/13 A2983 RMK A01 T02430131  RH  052%=      5-min Rain = 0
KPMS 241620Z 19014G19KT 24/13 A2983 RMK A01 T02440132  RH  052%=      5-min Rain = 0
KPMS 241625Z 18014G19KT 24/13 A2983 RMK A01 T02440133  RH  052%=      5-min Rain = 0
KPMS 241630Z 18014G19KT 25/13 A2983 RMK A01 T02490134  RH  051%=      5-min Rain = 0
KPMS 241635Z 18014G20KT 25/13 A2983 RMK A01 T02490134  RH  051%=      5-min Rain = 0
KPMS 241640Z 19015G20KT 25/14 A2983 RMK A01 T02490135  RH  051%=      5-min Rain = 0
KPMS 241645Z 18013G19KT 25/14 A2983 RMK A01 T02520136  RH  051%=      5-min Rain = 0
KPMS 241650Z 18013G19KT 25/14 A2983 RMK A01 T02530135  RH  050%=      5-min Rain = 0
KPMS 241655Z 18014G20KT 25/14 A2983 RMK A01 T02520136  RH  051%=      5-min Rain = 0
KPMS 241700Z 18014G19KT 25/14 A2983 RMK A01 T02540136  RH  050%=      5-min Rain = 0
KPMS 241705Z 18015KT 26/14 A2983 RMK A01 T02570137  RH  050%=      5-min Rain = 0
KPMS 241710Z 18014G20KT 26/14 A2983 RMK A01 T02600138  RH  049%=      5-min Rain = 0
KPMS 241715Z 17013G19KT 26/14 A2982 RMK A01 T02610138  RH  049%=      5-min Rain = 0
KPMS 241720Z 17014G21KT 26/14 A2982 RMK A01 T02620139  RH  049%=      5-min Rain = 0
KPMS 241725Z 17016G21KT 26/14 A2982 RMK A01 T02640138  RH  048%=      5-min Rain = 0
KPMS 241730Z 16014G20KT 27/14 A2982 RMK A01 T02660139  RH  048%=      5-min Rain = 0
KPMS 241735Z 16015G20KT 27/14 A2982 RMK A01 T02720140  RH  046%=      5-min Rain = 0
KPMS 241740Z 17015G22KT 27/14 A2981 RMK A01 T02700139  RH  047%=      5-min Rain = 0
KPMS 241745Z 18014G21KT 27/14 A2981 RMK A01 T02730139  RH  046%=      5-min Rain = 0
KPMS 241750Z 18013G20KT 28/14 A2981 RMK A01 T02770138  RH  044%=      5-min Rain = 0
KPMS 241755Z 19013G19KT 28/14 A2981 RMK A01 T02790136  RH  043%=      5-min Rain = 0
KPMS 241800Z 19015G21KT 28/14 A2981 RMK A01 T02780135  RH  043%=      5-min Rain = 0
KPMS 241805Z 18014G22KT 28/14 A2981 RMK A01 T02780135  RH  043%=      5-min Rain = 0
KPMS 241810Z 18015G21KT 28/13 A2981 RMK A01 T02800133  RH  042%=      5-min Rain = 0
KPMS 241815Z 18014G22KT 28/14 A2981 RMK A01 T02800135  RH  042%=      5-min Rain = 0
KPMS 241820Z 18014G22KT 28/14 A2981 RMK A01 T02840137  RH  042%=      5-min Rain = 0
KPMS 241825Z 19013G18KT 29/14 A298 RMK A01 T02860136  RH  041%=      5-min Rain = 0
KPMS 241830Z 17016G22KT 29/14 A298 RMK A01 T02860136  RH  041%=      5-min Rain = 0
KPMS 241835Z 17016G22KT 29/14 A298 RMK A01 T02850135  RH  041%=      5-min Rain = 0
KPMS 241840Z 18013G22KT 29/14 A298 RMK A01 T02860137  RH  042%=      5-min Rain = 0
KPMS 241845Z 17016G21KT 29/14 A298 RMK A01 T02910135  RH  040%=      5-min Rain = 0
KPMS 241850Z 18015G23KT 29/13 A2979 RMK A01 T02910131  RH  039%=      5-min Rain = 0
KPMS 241855Z 17016G22KT 29/14 A2979 RMK A01 T02910135  RH  040%=      5-min Rain = 0
KPMS 241900Z 17015G22KT 29/13 A2979 RMK A01 T02910133  RH  040%=      5-min Rain = 0
KPMS 241905Z 16013G20KT 29/14 A2979 RMK A01 T02920138  RH  040%=      5-min Rain = 0
KPMS 241910Z 17014G21KT 30/14 A2979 RMK A01 T03000135  RH  038%=      5-min Rain = 0
KPMS 241915Z 17014G24KT 30/13 A2979 RMK A01 T03020134  RH  037%=      5-min Rain = 0
KPMS 241920Z 17014G20KT 30/13 A2979 RMK A01 T02980134  RH  038%=      5-min Rain = 0
KPMS 241925Z 18015G21KT 30/14 A2979 RMK A01 T02980135  RH  038%=      5-min Rain = 0
KPMS 241930Z 17012G18KT 30/13 A2979 RMK A01 T02980129  RH  037%=      5-min Rain = 0
KPMS 241935Z 17016G25KT 30/13 A2978 RMK A01 T03030133  RH  037%=      5-min Rain = 0
KPMS 241940Z 17015G20KT 30/13 A2979 RMK A01 T03010131  RH  037%=      5-min Rain = 0
KPMS 241945Z 17014G19KT 30/13 A2978 RMK A01 T03020129  RH  036%=      5-min Rain = 0
KPMS 241950Z 16014G20KT 30/14 A2978 RMK A01 T03040137  RH  038%=      5-min Rain = 0
KPMS 241955Z 15015G22KT 30/14 A2978 RMK A01 T02970137  RH  039%=      5-min Rain = 0
KPMS 242000Z 14015G21KT 30/14 A2978 RMK A01 T03020136  RH  038%=      5-min Rain = 0
KPMS 242005Z 16014G23KT 30/13 A2978 RMK A01 T03000134  RH  038%=      5-min Rain = 0
KPMS 242010Z 15015G20KT 30/13 A2977 RMK A01 T03040131  RH  036%=      5-min Rain = 0
KPMS 242015Z 17016G22KT 31/13 A2977 RMK A01 T03050129  RH  035%=      5-min Rain = 0
KPMS 242020Z 15015G20KT 30/13 A2977 RMK A01 T03030130  RH  036%=      5-min Rain = 0
KPMS 242025Z 16016G22KT 31/12 A2977 RMK A01 T03060123  RH  034%=      5-min Rain = 0
KPMS 242030Z 15014G19KT 31/13 A2977 RMK A01 T03060129  RH  035%=      5-min Rain = 0
KPMS 242035Z 17013G18KT 31/13 A2976 RMK A01 T03060128  RH  035%=      5-min Rain = 0
KPMS 242040Z 16015G21KT 31/13 A2976 RMK A01 T03080126  RH  034%=      5-min Rain = 0
KPMS 242045Z 16013G20KT 31/13 A2976 RMK A01 T03070125  RH  034%=      5-min Rain = 0
KPMS 242050Z 18013G19KT 31/12 A2976 RMK A01 T03080124  RH  034%=      5-min Rain = 0
KPMS 242055Z 16015G23KT 31/13 A2975 RMK A01 T03090128  RH  034%=      5-min Rain = 0
KPMS 242100Z 16013G18KT 31/13 A2975 RMK A01 T03110129  RH  034%=      5-min Rain = 0
KPMS 242105Z 17014G20KT 30/12 A2975 RMK A01 T02990119  RH  034%=      5-min Rain = 0
KPMS 242110Z 17011G17KT 29/12 A2975 RMK A01 T02910116  RH  035%=      5-min Rain = 0
KPMS 242115Z 17012KT 29/11 A2975 RMK A01 T02900113  RH  034%=      5-min Rain = 0
KPMS 242120Z 16014G19KT 29/11 A2975 RMK A01 T02930113  RH  034%=      5-min Rain = 0
KPMS 242125Z 17011G17KT 30/11 A2975 RMK A01 T02950111  RH  033%=      5-min Rain = 0
KPMS 242130Z 17011G16KT 29/11 A2975 RMK A01 T02910109  RH  033%=      5-min Rain = 0
KPMS 242135Z 18010G15KT 30/11 A2974 RMK A01 T02960111  RH  033%=      5-min Rain = 0
KPMS 242140Z 17009G14KT 30/11 A2974 RMK A01 T02990113  RH  033%=      5-min Rain = 0
KPMS 242145Z 16009KT 29/11 A2974 RMK A01 T02930109  RH  033%=      5-min Rain = 0
KPMS 242150Z 16010KT 29/11 A2973 RMK A01 T02880108  RH  034%=      5-min Rain = 0
KPMS 242155Z 16009KT 29/11 A2973 RMK A01 T02880106  RH  033%=      5-min Rain = 0
KPMS 242200Z 15010KT 29/11 A2973 RMK A01 T02880108  RH  034%=      5-min Rain = 0
KPMS 242205Z 15008G14KT 29/11 A2972 RMK A01 T02860111  RH  035%=      5-min Rain = 0
KPMS 242210Z 14009G14KT 29/11 A2972 RMK A01 T02900110  RH  034%=      5-min Rain = 0
KPMS 242215Z 12009G17KT 29/11 A2971 RMK A01 T02890108  RH  034%=      5-min Rain = 0
KPMS 242220Z 14013G19KT 29/11 A2971 RMK A01 T02870108  RH  034%=      5-min Rain = 0
KPMS 242225Z 14014G19KT 29/11 A297 RMK A01 T02860106  RH  034%=      5-min Rain = 0
KPMS 242230Z 15013KT 29/11 A297 RMK A01 T02850110  RH  035%=      5-min Rain = 0
KPMS 242235Z 15013KT 28/11 A297 RMK A01 T02830108  RH  035%=      5-min Rain = 0
KPMS 242240Z 16011G17KT 28/11 A2971 RMK A01 T02840107  RH  034%=      5-min Rain = 0
KPMS 242245Z 18009G14KT 29/11 A2971 RMK A01 T02850108  RH  035%=      5-min Rain = 0
KPMS 242250Z 23010KT 28/09 A2971 RMK A01 T02820087  RH  030%=      5-min Rain = 0
KPMS 242255Z 25008KT 27/08 A297 RMK A01 T02670083  RH  032%=      5-min Rain = 0
KPMS 242300Z 28009G14KT 26/09 A297 RMK A01 T02590086  RH  034%=      5-min Rain = 0
KPMS 242305Z 27014G20KT 27/06 A2968 RMK A01 T02700062  RH  028%=      5-min Rain = 0
KPMS 242310Z 25009G15KT 27/06 A2968 RMK A01 T02700056  RH  026%=      5-min Rain = 0
KPMS 242315Z 24007G15KT 26/05 A2968 RMK A01 T02620054  RH  027%=      5-min Rain = 0
KPMS 242320Z 24008G15KT 26/05 A297 RMK A01 T02610048  RH  026%=      5-min Rain = 0
KPMS 242325Z 25014G29KT 22/10 A2974 RMK A01 T02220095  RH  047%=      5-min Rain = 0.16
KPMS 242330Z 25013G27KT 16/10 A2975 RMK A01 T01640104  RH  070%=      5-min Rain = 0.23
KPMS 242335Z 27004G11KT 15/10 A2975 RMK A01 T01480103  RH  077%=      5-min Rain = 0.17
KPMS 242340Z 36004G12KT 15/10 A2974 RMK A01 T01500103  RH  076%=      5-min Rain = 0.03
KPMS 242345Z 33006G18KT 15/10 A2973 RMK A01 T01490099  RH  074%=      5-min Rain = 0.01
KPMS 242350Z 11005G22KT 14/10 A2973 RMK A01 T01400104  RH  081%=      5-min Rain = 0.01
KPMS 242355Z 09018G60KT 14/11 A2974 RMK A01 T01400108  RH  084%=      5-min Rain = 0.01
KPMS 250000Z 08017G41KT 15/11 A2975 RMK A01 T01500112  RH  081%=      5-min Rain = 0.01
KPMS 250005Z 09016G29KT 15/11 A2975 RMK A01 T01490112  RH  081%=      5-min Rain = 0.01
KPMS 250010Z 07017G38KT 16/11 A2972 RMK A01 T01600111  RH  075%=      5-min Rain = 0
KPMS 250015Z 07013KT 16/11 A2971 RMK A01 T01610113  RH  076%=      5-min Rain = 0.01
KPMS 250020Z 09011G17KT 16/11 A297 RMK A01 T01640111  RH  074%=      5-min Rain = 0
KPMS 250025Z 10009KT 16/11 A2971 RMK A01 T01620113  RH  075%=      5-min Rain = 0
KPMS 250030Z 09013KT 17/11 A2971 RMK A01 T01670113  RH  073%=      5-min Rain = 0
KPMS 250035Z 08014KT 17/11 A2972 RMK A01 T01720113  RH  071%=      5-min Rain = 0
KPMS 250040Z 08015KT 18/11 A2971 RMK A01 T01780113  RH  068%=      5-min Rain = 0
KPMS 250045Z 10013KT 17/12 A2972 RMK A01 T01710117  RH  073%=      5-min Rain = 0
KPMS 250050Z 09012KT 18/11 A2973 RMK A01 T01760112  RH  069%=      5-min Rain = 0
KPMS 250055Z 08013KT 18/11 A2973 RMK A01 T01830110  RH  065%=      5-min Rain = 0
KPMS 250100Z 14018G31KT 18/12 A2976 RMK A01 T01760117  RH  071%=      5-min Rain = 0
KPMS 250105Z 14022G32KT 17/11 A2976 RMK A01 T01730111  RH  069%=      5-min Rain = 0
KPMS 250110Z 14019G29KT 17/11 A2977 RMK A01 T01720109  RH  069%=      5-min Rain = 0
KPMS 250115Z 13018G30KT 17/11 A2977 RMK A01 T01670114  RH  074%=      5-min Rain = 0.01
KPMS 250120Z 12015G23KT 16/12 A2977 RMK A01 T01600120  RH  080%=      5-min Rain = 0
KPMS 250125Z 12017G29KT 16/12 A2977 RMK A01 T01590122  RH  082%=      5-min Rain = 0.01
KPMS 250130Z 11016KT 16/12 A2976 RMK A01 T01570123  RH  083%=      5-min Rain = 0
KPMS 250135Z 11015KT 16/12 A2975 RMK A01 T01580124  RH  083%=      5-min Rain = 0
KPMS 250140Z 11018KT 16/12 A2973 RMK A01 T01600122  RH  081%=      5-min Rain = 0.01
KPMS 250145Z 11013KT 16/12 A2973 RMK A01 T01610122  RH  081%=      5-min Rain = 0
KPMS 250150Z 13014G20KT 17/12 A2974 RMK A01 T01660119  RH  077%=      5-min Rain = 0
KPMS 250155Z 12007G17KT 19/09 A2973 RMK A01 T01940094  RH  054%=      5-min Rain = 0
KPMS 250200Z 11011G19KT 20/10 A2972 RMK A01 T01980095  RH  053%=      5-min Rain = 0
KPMS 250205Z 10008G15KT 22/07 A297 RMK A01 T02230074  RH  040%=      5-min Rain = 0
KPMS 250210Z 08013KT 19/11 A2969 RMK A01 T01910105  RH  060%=      5-min Rain = 0
KPMS 250215Z 06014G19KT 19/11 A297 RMK A01 T01850105  RH  062%=      5-min Rain = 0
KPMS 250220Z 07012G26KT 21/08 A2969 RMK A01 T02070083  RH  047%=      5-min Rain = 0
KPMS 250225Z 02013G23KT 23/07 A2967 RMK A01 T02260068  RH  037%=      5-min Rain = 0
KPMS 250230Z 01014KT 23/07 A2966 RMK A01 T02270067  RH  037%=      5-min Rain = 0
KPMS 250235Z 03017G24KT 22/07 A2967 RMK A01 T02190074  RH  040%=      5-min Rain = 0
KPMS 250240Z 06019G26KT 21/09 A2966 RMK A01 T02060090  RH  049%=      5-min Rain = 0
KPMS 250245Z 06018KT 19/10 A2967 RMK A01 T01850104  RH  061%=      5-min Rain = 0
KPMS 250250Z 05017G23KT 19/10 A2967 RMK A01 T01910098  RH  056%=      5-min Rain = 0
KPMS 250255Z 05015G21KT 19/10 A2966 RMK A01 T01930096  RH  055%=      5-min Rain = 0
KPMS 250300Z 05013KT 19/10 A2966 RMK A01 T01930096  RH  055%=      5-min Rain = 0
KPMS 250305Z 06010KT 19/10 A2967 RMK A01 T01890099  RH  058%=      5-min Rain = 0
KPMS 250310Z 10009KT 18/11 A297 RMK A01 T01830106  RH  063%=      5-min Rain = 0
KPMS 250315Z 15017G30KT 18/11 A2975 RMK A01 T01790109  RH  066%=      5-min Rain = 0
KPMS 250320Z 16020G27KT 18/11 A2978 RMK A01 T01790110  RH  066%=      5-min Rain = 0
KPMS 250325Z 15025G39KT 18/11 A298 RMK A01 T01830106  RH  063%=      5-min Rain = 0
KPMS 250330Z 13023G30KT 17/12 A298 RMK A01 T01650115  RH  075%=      5-min Rain = 0
KPMS 250335Z 14019G31KT 17/12 A2982 RMK A01 T01670115  RH  074%=      5-min Rain = 0
KPMS 250340Z 14028G35KT 16/12 A2983 RMK A01 T01560118  RH  081%=      5-min Rain = 0
KPMS 250345Z 14022G28KT 15/12 A2982 RMK A01 T01480121  RH  087%=      5-min Rain = 0
KPMS 250350Z 12023G31KT 15/12 A2982 RMK A01 T01450122  RH  089%=      5-min Rain = 0
KPMS 250355Z 13026G35KT 14/12 A2982 RMK A01 T01440123  RH  091%=      5-min Rain = 0
KPMS 250400Z 12026G34KT 14/12 A2981 RMK A01 T01420124  RH  092%=      5-min Rain = 0
KPMS 250405Z 11028G34KT 14/13 A2979 RMK A01 T01400125  RH  094%=      5-min Rain = 0
KPMS 250410Z 11026G35KT 14/13 A2978 RMK A01 T01390125  RH  095%=      5-min Rain = 0
KPMS 250415Z 11027G36KT 14/13 A2977 RMK A01 T01390126  RH  095%=      5-min Rain = 0
KPMS 250420Z 11028G33KT 14/13 A2977 RMK A01 T01380125  RH  096%=      5-min Rain = 0
KPMS 250425Z 11028G38KT 14/13 A2976 RMK A01 T01380125  RH  095%=      5-min Rain = 0
KPMS 250430Z 11028G34KT 14/13 A2976 RMK A01 T01370125  RH  096%=      5-min Rain = 0
KPMS 250435Z 12027G37KT 14/13 A2977 RMK A01 T01370125  RH  096%=      5-min Rain = 0
KPMS 250440Z 12024G29KT 14/13 A2977 RMK A01 T01370125  RH  096%=      5-min Rain = 0
KPMS 250445Z 12024G32KT 14/13 A2978 RMK A01 T01370125  RH  096%=      5-min Rain = 0
KPMS 250450Z 12022G31KT 14/13 A2977 RMK A01 T01370125  RH  096%=      5-min Rain = 0
KPMS 250455Z 12024G31KT 14/13 A2977 RMK A01 T01370126  RH  097%=      5-min Rain = 0

Page generated in 0.0554 seconds.